sensor_id;sensor_type;location;lat;lon;timestamp;P1;durP1;ratioP1;P2;durP2;ratioP2
3307;SDS011;1666;48.898;9.182;2023-02-25T00:01:27;9.00;;;5.38;;
3307;SDS011;1666;48.898;9.182;2023-02-25T00:03:58;7.82;;;5.35;;
3307;SDS011;1666;48.898;9.182;2023-02-25T00:06:28;9.23;;;5.35;;
3307;SDS011;1666;48.898;9.182;2023-02-25T00:08:58;8.20;;;5.20;;
3307;SDS011;1666;48.898;9.182;2023-02-25T00:11:28;8.93;;;4.93;;
3307;SDS011;1666;48.898;9.182;2023-02-25T00:14:00;9.20;;;5.32;;
3307;SDS011;1666;48.898;9.182;2023-02-25T00:16:30;9.93;;;5.40;;
3307;SDS011;1666;48.898;9.182;2023-02-25T00:19:00;10.02;;;5.38;;
3307;SDS011;1666;48.898;9.182;2023-02-25T00:21:30;7.40;;;5.18;;
3307;SDS011;1666;48.898;9.182;2023-02-25T00:24:00;10.32;;;5.53;;
3307;SDS011;1666;48.898;9.182;2023-02-25T00:26:42;8.73;;;5.70;;
3307;SDS011;1666;48.898;9.182;2023-02-25T00:29:14;12.30;;;5.10;;
3307;SDS011;1666;48.898;9.182;2023-02-25T00:31:44;9.30;;;5.50;;
3307;SDS011;1666;48.898;9.182;2023-02-25T00:34:14;9.60;;;5.25;;
3307;SDS011;1666;48.898;9.182;2023-02-25T00:36:45;7.68;;;5.22;;
3307;SDS011;1666;48.898;9.182;2023-02-25T00:39:15;7.53;;;4.85;;
3307;SDS011;1666;48.898;9.182;2023-02-25T00:41:45;9.55;;;5.00;;
3307;SDS011;1666;48.898;9.182;2023-02-25T00:44:17;10.60;;;5.05;;
3307;SDS011;1666;48.898;9.182;2023-02-25T00:46:47;10.63;;;4.88;;
3307;SDS011;1666;48.898;9.182;2023-02-25T00:49:17;7.75;;;4.47;;
3307;SDS011;1666;48.898;9.182;2023-02-25T00:51:58;7.18;;;4.63;;
3307;SDS011;1666;48.898;9.182;2023-02-25T00:54:28;9.10;;;4.78;;
3307;SDS011;1666;48.898;9.182;2023-02-25T00:56:58;8.20;;;4.43;;
3307;SDS011;1666;48.898;9.182;2023-02-25T00:59:30;7.60;;;4.32;;
3307;SDS011;1666;48.898;9.182;2023-02-25T01:02:01;7.97;;;4.35;;
3307;SDS011;1666;48.898;9.182;2023-02-25T01:04:31;9.02;;;4.32;;
3307;SDS011;1666;48.898;9.182;2023-02-25T01:07:01;10.02;;;4.45;;
3307;SDS011;1666;48.898;9.182;2023-02-25T01:09:30;7.18;;;4.85;;
3307;SDS011;1666;48.898;9.182;2023-02-25T01:12:00;8.25;;;4.00;;
3307;SDS011;1666;48.898;9.182;2023-02-25T01:14:33;6.97;;;4.03;;
3307;SDS011;1666;48.898;9.182;2023-02-25T01:17:03;7.57;;;4.50;;
3307;SDS011;1666;48.898;9.182;2023-02-25T01:19:35;6.93;;;3.90;;
3307;SDS011;1666;48.898;9.182;2023-02-25T01:22:04;6.55;;;3.33;;
3307;SDS011;1666;48.898;9.182;2023-02-25T01:24:34;7.68;;;3.53;;
3307;SDS011;1666;48.898;9.182;2023-02-25T01:27:04;7.00;;;3.47;;
3307;SDS011;1666;48.898;9.182;2023-02-25T01:29:38;5.40;;;3.47;;
3307;SDS011;1666;48.898;9.182;2023-02-25T01:32:09;6.43;;;3.35;;
3307;SDS011;1666;48.898;9.182;2023-02-25T01:34:41;7.72;;;3.85;;
3307;SDS011;1666;48.898;9.182;2023-02-25T01:37:11;7.22;;;4.43;;
3307;SDS011;1666;48.898;9.182;2023-02-25T01:39:41;10.70;;;4.32;;
3307;SDS011;1666;48.898;9.182;2023-02-25T01:42:12;8.82;;;3.70;;
3307;SDS011;1666;48.898;9.182;2023-02-25T01:48:00;5.97;;;3.65;;
3307;SDS011;1666;48.898;9.182;2023-02-25T01:50:37;7.40;;;4.47;;
3307;SDS011;1666;48.898;9.182;2023-02-25T01:53:11;6.60;;;4.18;;
3307;SDS011;1666;48.898;9.182;2023-02-25T01:55:42;8.27;;;4.00;;
3307;SDS011;1666;48.898;9.182;2023-02-25T01:58:12;7.28;;;4.10;;
3307;SDS011;1666;48.898;9.182;2023-02-25T02:00:42;6.57;;;3.88;;
3307;SDS011;1666;48.898;9.182;2023-02-25T02:03:15;6.15;;;3.90;;
3307;SDS011;1666;48.898;9.182;2023-02-25T02:05:48;7.35;;;3.17;;
3307;SDS011;1666;48.898;9.182;2023-02-25T02:08:24;6.80;;;3.30;;
3307;SDS011;1666;48.898;9.182;2023-02-25T02:10:54;4.95;;;3.47;;
3307;SDS011;1666;48.898;9.182;2023-02-25T02:13:25;5.85;;;3.20;;
3307;SDS011;1666;48.898;9.182;2023-02-25T02:16:00;4.07;;;2.85;;
3307;SDS011;1666;48.898;9.182;2023-02-25T02:18:41;4.40;;;3.13;;
3307;SDS011;1666;48.898;9.182;2023-02-25T02:21:19;7.40;;;3.35;;
3307;SDS011;1666;48.898;9.182;2023-02-25T02:24:17;8.98;;;3.58;;
3307;SDS011;1666;48.898;9.182;2023-02-25T02:26:59;6.45;;;3.20;;
3307;SDS011;1666;48.898;9.182;2023-02-25T02:29:37;5.03;;;3.10;;
3307;SDS011;1666;48.898;9.182;2023-02-25T02:32:34;6.95;;;3.63;;
3307;SDS011;1666;48.898;9.182;2023-02-25T02:35:11;8.05;;;3.80;;
3307;SDS011;1666;48.898;9.182;2023-02-25T02:37:48;6.55;;;3.67;;
3307;SDS011;1666;48.898;9.182;2023-02-25T02:40:28;5.80;;;3.28;;
3307;SDS011;1666;48.898;9.182;2023-02-25T02:43:08;8.02;;;2.97;;
3307;SDS011;1666;48.898;9.182;2023-02-25T02:45:47;6.55;;;3.45;;
3307;SDS011;1666;48.898;9.182;2023-02-25T02:48:27;7.28;;;3.17;;
3307;SDS011;1666;48.898;9.182;2023-02-25T02:51:03;6.68;;;3.30;;
3307;SDS011;1666;48.898;9.182;2023-02-25T02:53:37;6.57;;;3.38;;
3307;SDS011;1666;48.898;9.182;2023-02-25T02:56:11;6.97;;;3.40;;
3307;SDS011;1666;48.898;9.182;2023-02-25T02:58:44;5.53;;;3.25;;
3307;SDS011;1666;48.898;9.182;2023-02-25T03:01:19;6.25;;;3.50;;
3307;SDS011;1666;48.898;9.182;2023-02-25T03:03:57;5.38;;;3.45;;
3307;SDS011;1666;48.898;9.182;2023-02-25T03:06:32;8.18;;;3.60;;
3307;SDS011;1666;48.898;9.182;2023-02-25T03:09:05;6.05;;;3.40;;
3307;SDS011;1666;48.898;9.182;2023-02-25T03:11:38;5.78;;;3.25;;
3307;SDS011;1666;48.898;9.182;2023-02-25T03:14:09;6.90;;;3.75;;
3307;SDS011;1666;48.898;9.182;2023-02-25T03:16:40;6.25;;;3.22;;
3307;SDS011;1666;48.898;9.182;2023-02-25T03:19:17;6.68;;;3.13;;
3307;SDS011;1666;48.898;9.182;2023-02-25T03:21:52;8.65;;;3.35;;
3307;SDS011;1666;48.898;9.182;2023-02-25T03:24:28;6.22;;;3.25;;
3307;SDS011;1666;48.898;9.182;2023-02-25T03:27:14;6.80;;;3.63;;
3307;SDS011;1666;48.898;9.182;2023-02-25T03:29:51;5.82;;;3.13;;
3307;SDS011;1666;48.898;9.182;2023-02-25T03:32:24;5.15;;;3.38;;
3307;SDS011;1666;48.898;9.182;2023-02-25T03:34:59;6.07;;;3.28;;
3307;SDS011;1666;48.898;9.182;2023-02-25T03:40:02;7.32;;;3.70;;
3307;SDS011;1666;48.898;9.182;2023-02-25T03:42:40;6.93;;;3.65;;
3307;SDS011;1666;48.898;9.182;2023-02-25T03:45:14;4.65;;;3.00;;
3307;SDS011;1666;48.898;9.182;2023-02-25T03:47:44;8.52;;;3.55;;
3307;SDS011;1666;48.898;9.182;2023-02-25T03:50:17;7.38;;;3.28;;
3307;SDS011;1666;48.898;9.182;2023-02-25T03:52:50;4.97;;;2.80;;
3307;SDS011;1666;48.898;9.182;2023-02-25T03:55:20;6.80;;;2.70;;
3307;SDS011;1666;48.898;9.182;2023-02-25T03:57:50;8.73;;;2.22;;
3307;SDS011;1666;48.898;9.182;2023-02-25T04:00:21;5.72;;;2.63;;
3307;SDS011;1666;48.898;9.182;2023-02-25T04:02:52;7.07;;;2.40;;
3307;SDS011;1666;48.898;9.182;2023-02-25T04:05:25;5.90;;;2.15;;
3307;SDS011;1666;48.898;9.182;2023-02-25T04:07:55;5.28;;;2.25;;
3307;SDS011;1666;48.898;9.182;2023-02-25T04:10:26;6.95;;;2.47;;
3307;SDS011;1666;48.898;9.182;2023-02-25T04:12:56;6.35;;;2.47;;
3307;SDS011;1666;48.898;9.182;2023-02-25T04:15:25;5.25;;;1.80;;
3307;SDS011;1666;48.898;9.182;2023-02-25T04:17:55;4.68;;;1.77;;
3307;SDS011;1666;48.898;9.182;2023-02-25T04:20:28;7.43;;;2.15;;
3307;SDS011;1666;48.898;9.182;2023-02-25T04:22:58;7.22;;;2.42;;
3307;SDS011;1666;48.898;9.182;2023-02-25T04:25:28;6.40;;;2.03;;
3307;SDS011;1666;48.898;9.182;2023-02-25T04:27:58;6.03;;;1.90;;
3307;SDS011;1666;48.898;9.182;2023-02-25T04:30:28;6.18;;;1.90;;
3307;SDS011;1666;48.898;9.182;2023-02-25T04:32:59;8.18;;;2.08;;
3307;SDS011;1666;48.898;9.182;2023-02-25T04:35:32;6.43;;;1.60;;
3307;SDS011;1666;48.898;9.182;2023-02-25T04:38:02;5.80;;;1.75;;
3307;SDS011;1666;48.898;9.182;2023-02-25T04:40:34;5.03;;;1.63;;
3307;SDS011;1666;48.898;9.182;2023-02-25T04:43:04;4.05;;;1.85;;
3307;SDS011;1666;48.898;9.182;2023-02-25T04:45:35;6.97;;;1.80;;
3307;SDS011;1666;48.898;9.182;2023-02-25T04:48:05;6.65;;;1.70;;
3307;SDS011;1666;48.898;9.182;2023-02-25T04:50:37;5.60;;;2.10;;
3307;SDS011;1666;48.898;9.182;2023-02-25T04:53:07;6.57;;;1.70;;
3307;SDS011;1666;48.898;9.182;2023-02-25T04:55:37;4.47;;;1.70;;
3307;SDS011;1666;48.898;9.182;2023-02-25T04:58:06;5.03;;;1.75;;
3307;SDS011;1666;48.898;9.182;2023-02-25T05:00:37;4.82;;;1.45;;
3307;SDS011;1666;48.898;9.182;2023-02-25T05:03:13;4.97;;;1.77;;
3307;SDS011;1666;48.898;9.182;2023-02-25T05:05:45;5.18;;;1.73;;
3307;SDS011;1666;48.898;9.182;2023-02-25T05:08:15;4.60;;;1.55;;
3307;SDS011;1666;48.898;9.182;2023-02-25T05:10:44;7.70;;;1.90;;
3307;SDS011;1666;48.898;9.182;2023-02-25T05:13:14;5.63;;;1.80;;
3307;SDS011;1666;48.898;9.182;2023-02-25T05:15:44;5.60;;;1.75;;
3307;SDS011;1666;48.898;9.182;2023-02-25T05:18:14;7.05;;;2.63;;
3307;SDS011;1666;48.898;9.182;2023-02-25T05:20:47;6.10;;;1.95;;
3307;SDS011;1666;48.898;9.182;2023-02-25T05:23:17;4.43;;;1.70;;
3307;SDS011;1666;48.898;9.182;2023-02-25T05:25:47;3.17;;;1.30;;
3307;SDS011;1666;48.898;9.182;2023-02-25T05:28:17;5.35;;;1.95;;
3307;SDS011;1666;48.898;9.182;2023-02-25T05:30:46;5.07;;;1.45;;
3307;SDS011;1666;48.898;9.182;2023-02-25T05:33:20;6.95;;;1.40;;
3307;SDS011;1666;48.898;9.182;2023-02-25T05:35:54;2.75;;;1.30;;
3307;SDS011;1666;48.898;9.182;2023-02-25T05:38:24;6.30;;;1.20;;
3307;SDS011;1666;48.898;9.182;2023-02-25T05:40:54;3.65;;;1.40;;
3307;SDS011;1666;48.898;9.182;2023-02-25T05:43:24;2.95;;;1.33;;
3307;SDS011;1666;48.898;9.182;2023-02-25T05:45:54;3.60;;;1.80;;
3307;SDS011;1666;48.898;9.182;2023-02-25T05:48:25;5.50;;;1.45;;
3307;SDS011;1666;48.898;9.182;2023-02-25T05:51:01;3.78;;;1.10;;
3307;SDS011;1666;48.898;9.182;2023-02-25T05:53:32;5.47;;;1.60;;
3307;SDS011;1666;48.898;9.182;2023-02-25T05:56:03;5.80;;;1.38;;
3307;SDS011;1666;48.898;9.182;2023-02-25T05:58:34;5.72;;;2.30;;
3307;SDS011;1666;48.898;9.182;2023-02-25T06:01:05;4.85;;;1.40;;
3307;SDS011;1666;48.898;9.182;2023-02-25T06:03:38;4.38;;;1.65;;
3307;SDS011;1666;48.898;9.182;2023-02-25T06:06:12;6.82;;;1.50;;
3307;SDS011;1666;48.898;9.182;2023-02-25T06:08:43;5.85;;;1.40;;
3307;SDS011;1666;48.898;9.182;2023-02-25T06:11:16;3.90;;;1.42;;
3307;SDS011;1666;48.898;9.182;2023-02-25T06:13:48;4.93;;;1.60;;
3307;SDS011;1666;48.898;9.182;2023-02-25T06:16:19;4.03;;;1.25;;
3307;SDS011;1666;48.898;9.182;2023-02-25T06:18:51;4.25;;;1.10;;
3307;SDS011;1666;48.898;9.182;2023-02-25T06:21:24;6.40;;;1.75;;
3307;SDS011;1666;48.898;9.182;2023-02-25T06:23:54;3.05;;;1.60;;
3307;SDS011;1666;48.898;9.182;2023-02-25T06:26:24;3.38;;;1.40;;
3307;SDS011;1666;48.898;9.182;2023-02-25T06:28:54;5.03;;;1.45;;
3307;SDS011;1666;48.898;9.182;2023-02-25T06:31:25;5.22;;;1.75;;
3307;SDS011;1666;48.898;9.182;2023-02-25T06:33:55;5.18;;;1.30;;
3307;SDS011;1666;48.898;9.182;2023-02-25T06:36:27;6.40;;;1.67;;
3307;SDS011;1666;48.898;9.182;2023-02-25T06:38:58;7.15;;;1.50;;
3307;SDS011;1666;48.898;9.182;2023-02-25T06:41:28;5.85;;;1.50;;
3307;SDS011;1666;48.898;9.182;2023-02-25T06:43:58;6.20;;;1.67;;
3307;SDS011;1666;48.898;9.182;2023-02-25T06:46:28;7.25;;;1.25;;
3307;SDS011;1666;48.898;9.182;2023-02-25T06:48:57;7.50;;;1.90;;
3307;SDS011;1666;48.898;9.182;2023-02-25T06:51:30;8.38;;;1.85;;
3307;SDS011;1666;48.898;9.182;2023-02-25T06:54:00;4.80;;;1.50;;
3307;SDS011;1666;48.898;9.182;2023-02-25T06:56:31;2.30;;;1.25;;
3307;SDS011;1666;48.898;9.182;2023-02-25T06:59:01;5.03;;;1.42;;
3307;SDS011;1666;48.898;9.182;2023-02-25T07:01:31;5.57;;;1.67;;
3307;SDS011;1666;48.898;9.182;2023-02-25T07:04:02;6.38;;;1.10;;
3307;SDS011;1666;48.898;9.182;2023-02-25T07:06:35;3.00;;;1.50;;
3307;SDS011;1666;48.898;9.182;2023-02-25T07:09:05;5.70;;;1.58;;
3307;SDS011;1666;48.898;9.182;2023-02-25T07:11:34;6.68;;;2.00;;
3307;SDS011;1666;48.898;9.182;2023-02-25T07:14:05;3.90;;;1.73;;
3307;SDS011;1666;48.898;9.182;2023-02-25T07:16:35;4.28;;;1.38;;
3307;SDS011;1666;48.898;9.182;2023-02-25T07:19:04;4.40;;;1.60;;
3307;SDS011;1666;48.898;9.182;2023-02-25T07:21:37;5.10;;;1.60;;
3307;SDS011;1666;48.898;9.182;2023-02-25T07:24:07;4.47;;;1.83;;
3307;SDS011;1666;48.898;9.182;2023-02-25T07:26:37;6.80;;;1.38;;
3307;SDS011;1666;48.898;9.182;2023-02-25T07:29:07;7.05;;;2.10;;
3307;SDS011;1666;48.898;9.182;2023-02-25T07:31:39;5.38;;;1.60;;
3307;SDS011;1666;48.898;9.182;2023-02-25T07:34:10;3.47;;;1.40;;
3307;SDS011;1666;48.898;9.182;2023-02-25T07:36:42;4.82;;;1.73;;
3307;SDS011;1666;48.898;9.182;2023-02-25T07:39:12;4.53;;;1.92;;
3307;SDS011;1666;48.898;9.182;2023-02-25T07:41:42;4.28;;;1.20;;
3307;SDS011;1666;48.898;9.182;2023-02-25T07:44:12;9.00;;;1.48;;
3307;SDS011;1666;48.898;9.182;2023-02-25T07:46:42;6.32;;;2.15;;
3307;SDS011;1666;48.898;9.182;2023-02-25T07:49:11;6.13;;;1.50;;
3307;SDS011;1666;48.898;9.182;2023-02-25T07:51:44;3.35;;;1.67;;
3307;SDS011;1666;48.898;9.182;2023-02-25T07:54:14;9.32;;;1.95;;
3307;SDS011;1666;48.898;9.182;2023-02-25T07:56:46;6.28;;;1.92;;
3307;SDS011;1666;48.898;9.182;2023-02-25T07:59:17;5.70;;;1.65;;
3307;SDS011;1666;48.898;9.182;2023-02-25T08:01:48;7.47;;;1.58;;
3307;SDS011;1666;48.898;9.182;2023-02-25T08:04:18;3.88;;;1.65;;
3307;SDS011;1666;48.898;9.182;2023-02-25T08:06:50;6.90;;;1.58;;
3307;SDS011;1666;48.898;9.182;2023-02-25T08:09:20;5.28;;;1.92;;
3307;SDS011;1666;48.898;9.182;2023-02-25T08:11:50;6.30;;;1.58;;
3307;SDS011;1666;48.898;9.182;2023-02-25T08:14:20;5.72;;;1.58;;
3307;SDS011;1666;48.898;9.182;2023-02-25T08:16:54;7.95;;;1.85;;
3307;SDS011;1666;48.898;9.182;2023-02-25T08:19:24;6.47;;;1.83;;
3307;SDS011;1666;48.898;9.182;2023-02-25T08:21:56;3.80;;;1.25;;
3307;SDS011;1666;48.898;9.182;2023-02-25T08:24:26;4.80;;;1.30;;
3307;SDS011;1666;48.898;9.182;2023-02-25T08:26:56;2.60;;;1.20;;
3307;SDS011;1666;48.898;9.182;2023-02-25T08:29:26;3.30;;;1.17;;
3307;SDS011;1666;48.898;9.182;2023-02-25T08:31:56;5.43;;;1.65;;
3307;SDS011;1666;48.898;9.182;2023-02-25T08:34:26;5.90;;;2.67;;
3307;SDS011;1666;48.898;9.182;2023-02-25T08:36:58;4.93;;;1.58;;
3307;SDS011;1666;48.898;9.182;2023-02-25T08:39:28;3.53;;;1.30;;
3307;SDS011;1666;48.898;9.182;2023-02-25T08:42:01;6.43;;;1.65;;
3307;SDS011;1666;48.898;9.182;2023-02-25T08:44:31;5.32;;;1.20;;
3307;SDS011;1666;48.898;9.182;2023-02-25T08:47:01;5.45;;;1.65;;
3307;SDS011;1666;48.898;9.182;2023-02-25T08:49:31;6.63;;;1.38;;
3307;SDS011;1666;48.898;9.182;2023-02-25T08:52:03;2.40;;;0.85;;
3307;SDS011;1666;48.898;9.182;2023-02-25T08:54:33;2.80;;;1.15;;
3307;SDS011;1666;48.898;9.182;2023-02-25T08:57:03;7.82;;;1.60;;
3307;SDS011;1666;48.898;9.182;2023-02-25T08:59:33;5.47;;;1.70;;
3307;SDS011;1666;48.898;9.182;2023-02-25T09:02:04;5.72;;;1.58;;
3307;SDS011;1666;48.898;9.182;2023-02-25T09:04:35;4.53;;;1.48;;
3307;SDS011;1666;48.898;9.182;2023-02-25T09:07:08;5.20;;;1.70;;
3307;SDS011;1666;48.898;9.182;2023-02-25T09:09:39;3.60;;;2.08;;
3307;SDS011;1666;48.898;9.182;2023-02-25T09:12:09;7.70;;;1.80;;
3307;SDS011;1666;48.898;9.182;2023-02-25T09:14:39;5.25;;;1.50;;
3307;SDS011;1666;48.898;9.182;2023-02-25T09:17:09;7.38;;;1.08;;
3307;SDS011;1666;48.898;9.182;2023-02-25T09:19:39;10.75;;;1.20;;
3307;SDS011;1666;48.898;9.182;2023-02-25T09:22:11;4.47;;;1.58;;
3307;SDS011;1666;48.898;9.182;2023-02-25T09:24:41;3.55;;;1.40;;
3307;SDS011;1666;48.898;9.182;2023-02-25T09:27:11;7.22;;;1.63;;
3307;SDS011;1666;48.898;9.182;2023-02-25T09:29:40;4.03;;;1.33;;
3307;SDS011;1666;48.898;9.182;2023-02-25T09:32:15;5.00;;;1.40;;
3307;SDS011;1666;48.898;9.182;2023-02-25T09:34:46;5.90;;;0.93;;
3307;SDS011;1666;48.898;9.182;2023-02-25T09:37:20;6.05;;;1.10;;
3307;SDS011;1666;48.898;9.182;2023-02-25T09:39:51;2.78;;;1.20;;
3307;SDS011;1666;48.898;9.182;2023-02-25T09:42:21;3.00;;;0.95;;
3307;SDS011;1666;48.898;9.182;2023-02-25T09:44:57;5.70;;;0.65;;
3307;SDS011;1666;48.898;9.182;2023-02-25T09:47:31;3.00;;;0.50;;
3307;SDS011;1666;48.898;9.182;2023-02-25T09:50:07;1.08;;;0.70;;
3307;SDS011;1666;48.898;9.182;2023-02-25T09:52:47;2.95;;;1.30;;
3307;SDS011;1666;48.898;9.182;2023-02-25T09:55:28;4.03;;;0.80;;
3307;SDS011;1666;48.898;9.182;2023-02-25T09:58:02;2.10;;;0.70;;
3307;SDS011;1666;48.898;9.182;2023-02-25T10:00:38;4.35;;;0.82;;
3307;SDS011;1666;48.898;9.182;2023-02-25T10:03:14;1.95;;;1.08;;
3307;SDS011;1666;48.898;9.182;2023-02-25T10:05:52;2.70;;;0.93;;
3307;SDS011;1666;48.898;9.182;2023-02-25T10:08:32;3.90;;;1.08;;
3307;SDS011;1666;48.898;9.182;2023-02-25T10:11:08;3.95;;;0.80;;
3307;SDS011;1666;48.898;9.182;2023-02-25T10:13:41;1.60;;;0.60;;
3307;SDS011;1666;48.898;9.182;2023-02-25T10:18:57;3.17;;;1.00;;
3307;SDS011;1666;48.898;9.182;2023-02-25T10:21:36;1.65;;;0.80;;
3307;SDS011;1666;48.898;9.182;2023-02-25T10:24:19;2.40;;;0.65;;
3307;SDS011;1666;48.898;9.182;2023-02-25T10:27:06;2.38;;;0.70;;
3307;SDS011;1666;48.898;9.182;2023-02-25T10:29:43;3.03;;;0.75;;
3307;SDS011;1666;48.898;9.182;2023-02-25T10:32:18;3.42;;;0.90;;
3307;SDS011;1666;48.898;9.182;2023-02-25T10:34:50;2.75;;;0.88;;
3307;SDS011;1666;48.898;9.182;2023-02-25T10:37:22;4.93;;;1.08;;
3307;SDS011;1666;48.898;9.182;2023-02-25T10:40:01;2.63;;;1.30;;
3307;SDS011;1666;48.898;9.182;2023-02-25T10:42:36;5.13;;;1.08;;
3307;SDS011;1666;48.898;9.182;2023-02-25T10:45:07;2.28;;;1.00;;
3307;SDS011;1666;48.898;9.182;2023-02-25T10:47:41;4.05;;;1.08;;
3307;SDS011;1666;48.898;9.182;2023-02-25T10:50:17;4.90;;;1.10;;
3307;SDS011;1666;48.898;9.182;2023-02-25T10:53:11;2.03;;;1.10;;
3307;SDS011;1666;48.898;9.182;2023-02-25T10:55:48;4.57;;;1.10;;
3307;SDS011;1666;48.898;9.182;2023-02-25T10:58:21;2.35;;;0.95;;
3307;SDS011;1666;48.898;9.182;2023-02-25T11:00:57;3.92;;;1.27;;
3307;SDS011;1666;48.898;9.182;2023-02-25T11:03:33;3.80;;;1.40;;
3307;SDS011;1666;48.898;9.182;2023-02-25T11:06:11;6.32;;;1.10;;
3307;SDS011;1666;48.898;9.182;2023-02-25T11:08:48;2.85;;;1.13;;
3307;SDS011;1666;48.898;9.182;2023-02-25T11:11:23;4.13;;;1.13;;
3307;SDS011;1666;48.898;9.182;2023-02-25T11:14:02;4.03;;;1.65;;
3307;SDS011;1666;48.898;9.182;2023-02-25T11:16:34;2.00;;;1.00;;
3307;SDS011;1666;48.898;9.182;2023-02-25T11:19:09;7.60;;;1.42;;
3307;SDS011;1666;48.898;9.182;2023-02-25T11:21:43;2.15;;;1.20;;
3307;SDS011;1666;48.898;9.182;2023-02-25T11:24:15;3.42;;;1.45;;
3307;SDS011;1666;48.898;9.182;2023-02-25T11:26:50;6.03;;;1.55;;
3307;SDS011;1666;48.898;9.182;2023-02-25T11:29:21;3.55;;;1.40;;
3307;SDS011;1666;48.898;9.182;2023-02-25T11:31:54;4.75;;;1.40;;
3307;SDS011;1666;48.898;9.182;2023-02-25T11:34:30;4.22;;;1.70;;
3307;SDS011;1666;48.898;9.182;2023-02-25T11:39:52;5.40;;;1.75;;
3307;SDS011;1666;48.898;9.182;2023-02-25T11:42:26;5.28;;;1.70;;
3307;SDS011;1666;48.898;9.182;2023-02-25T11:45:00;3.67;;;1.83;;
3307;SDS011;1666;48.898;9.182;2023-02-25T11:47:31;4.15;;;1.90;;
3307;SDS011;1666;48.898;9.182;2023-02-25T11:50:07;4.13;;;1.38;;
3307;SDS011;1666;48.898;9.182;2023-02-25T11:52:50;5.00;;;1.42;;
3307;SDS011;1666;48.898;9.182;2023-02-25T11:55:34;2.42;;;1.58;;
3307;SDS011;1666;48.898;9.182;2023-02-25T11:58:15;3.15;;;1.50;;
3307;SDS011;1666;48.898;9.182;2023-02-25T12:00:54;3.17;;;1.80;;
3307;SDS011;1666;48.898;9.182;2023-02-25T12:06:43;3.97;;;1.55;;
3307;SDS011;1666;48.898;9.182;2023-02-25T12:09:44;5.55;;;1.52;;
3307;SDS011;1666;48.898;9.182;2023-02-25T12:12:54;4.45;;;1.73;;
3307;SDS011;1666;48.898;9.182;2023-02-25T12:15:49;3.05;;;1.70;;
3307;SDS011;1666;48.898;9.182;2023-02-25T12:21:44;5.57;;;1.85;;
3307;SDS011;1666;48.898;9.182;2023-02-25T12:24:40;2.70;;;1.27;;
3307;SDS011;1666;48.898;9.182;2023-02-25T12:33:47;2.38;;;0.85;;
3307;SDS011;1666;48.898;9.182;2023-02-25T12:36:39;2.60;;;1.05;;
3307;SDS011;1666;48.898;9.182;2023-02-25T12:42:31;4.97;;;1.40;;
3307;SDS011;1666;48.898;9.182;2023-02-25T12:45:22;3.60;;;1.70;;
3307;SDS011;1666;48.898;9.182;2023-02-25T12:48:14;4.97;;;1.80;;
3307;SDS011;1666;48.898;9.182;2023-02-25T12:53:50;6.93;;;1.50;;
3307;SDS011;1666;48.898;9.182;2023-02-25T12:56:28;3.83;;;1.40;;
3307;SDS011;1666;48.898;9.182;2023-02-25T13:02:34;6.30;;;1.42;;
3307;SDS011;1666;48.898;9.182;2023-02-25T13:08:29;3.58;;;1.70;;
3307;SDS011;1666;48.898;9.182;2023-02-25T13:11:10;4.88;;;2.05;;
3307;SDS011;1666;48.898;9.182;2023-02-25T13:14:01;3.92;;;1.90;;
3307;SDS011;1666;48.898;9.182;2023-02-25T13:16:45;8.13;;;2.13;;
3307;SDS011;1666;48.898;9.182;2023-02-25T13:19:29;6.07;;;1.88;;
3307;SDS011;1666;48.898;9.182;2023-02-25T13:22:10;5.88;;;1.38;;
3307;SDS011;1666;48.898;9.182;2023-02-25T13:24:53;3.17;;;1.30;;
3307;SDS011;1666;48.898;9.182;2023-02-25T13:27:38;3.22;;;1.63;;
3307;SDS011;1666;48.898;9.182;2023-02-25T13:30:20;7.03;;;2.33;;
3307;SDS011;1666;48.898;9.182;2023-02-25T13:33:04;6.50;;;2.10;;
3307;SDS011;1666;48.898;9.182;2023-02-25T13:35:50;6.82;;;1.80;;
3307;SDS011;1666;48.898;9.182;2023-02-25T13:38:35;3.47;;;1.63;;
3307;SDS011;1666;48.898;9.182;2023-02-25T13:41:23;5.03;;;2.28;;
3307;SDS011;1666;48.898;9.182;2023-02-25T13:47:08;4.63;;;1.63;;
3307;SDS011;1666;48.898;9.182;2023-02-25T13:49:55;2.47;;;1.48;;
3307;SDS011;1666;48.898;9.182;2023-02-25T13:52:46;8.30;;;1.77;;
3307;SDS011;1666;48.898;9.182;2023-02-25T13:55:41;4.90;;;1.65;;
3307;SDS011;1666;48.898;9.182;2023-02-25T13:58:28;4.40;;;1.48;;
3307;SDS011;1666;48.898;9.182;2023-02-25T14:01:15;5.53;;;1.60;;
3307;SDS011;1666;48.898;9.182;2023-02-25T14:06:56;7.10;;;1.65;;
3307;SDS011;1666;48.898;9.182;2023-02-25T14:09:48;5.50;;;1.90;;
3307;SDS011;1666;48.898;9.182;2023-02-25T14:12:29;4.50;;;1.65;;
3307;SDS011;1666;48.898;9.182;2023-02-25T14:15:23;7.30;;;1.48;;
3307;SDS011;1666;48.898;9.182;2023-02-25T14:18:15;4.82;;;1.90;;
3307;SDS011;1666;48.898;9.182;2023-02-25T14:21:05;4.15;;;1.65;;
3307;SDS011;1666;48.898;9.182;2023-02-25T14:24:06;5.80;;;1.80;;
3307;SDS011;1666;48.898;9.182;2023-02-25T14:26:46;5.00;;;1.88;;
3307;SDS011;1666;48.898;9.182;2023-02-25T14:29:29;5.53;;;1.67;;
3307;SDS011;1666;48.898;9.182;2023-02-25T14:32:20;2.65;;;1.50;;
3307;SDS011;1666;48.898;9.182;2023-02-25T14:35:08;4.72;;;1.63;;
3307;SDS011;1666;48.898;9.182;2023-02-25T14:37:58;8.45;;;2.80;;
3307;SDS011;1666;48.898;9.182;2023-02-25T14:40:38;11.40;;;2.33;;
3307;SDS011;1666;48.898;9.182;2023-02-25T14:43:28;4.40;;;1.70;;
3307;SDS011;1666;48.898;9.182;2023-02-25T14:46:01;5.45;;;1.83;;
3307;SDS011;1666;48.898;9.182;2023-02-25T14:48:42;3.10;;;1.58;;
3307;SDS011;1666;48.898;9.182;2023-02-25T14:51:28;6.28;;;2.00;;
3307;SDS011;1666;48.898;9.182;2023-02-25T14:54:22;8.48;;;2.80;;
3307;SDS011;1666;48.898;9.182;2023-02-25T14:57:40;3.20;;;1.48;;
3307;SDS011;1666;48.898;9.182;2023-02-25T15:00:35;5.47;;;1.42;;
3307;SDS011;1666;48.898;9.182;2023-02-25T15:03:31;4.85;;;1.67;;
3307;SDS011;1666;48.898;9.182;2023-02-25T15:06:18;3.70;;;1.38;;
3307;SDS011;1666;48.898;9.182;2023-02-25T15:12:15;7.45;;;1.98;;
3307;SDS011;1666;48.898;9.182;2023-02-25T15:15:17;5.45;;;1.67;;
3307;SDS011;1666;48.898;9.182;2023-02-25T15:20:58;4.20;;;1.20;;
3307;SDS011;1666;48.898;9.182;2023-02-25T15:23:58;4.55;;;1.45;;
3307;SDS011;1666;48.898;9.182;2023-02-25T15:26:38;8.57;;;2.00;;
3307;SDS011;1666;48.898;9.182;2023-02-25T15:29:20;3.55;;;1.50;;
3307;SDS011;1666;48.898;9.182;2023-02-25T15:32:25;7.40;;;1.73;;
3307;SDS011;1666;48.898;9.182;2023-02-25T15:34:58;9.27;;;1.85;;
3307;SDS011;1666;48.898;9.182;2023-02-25T15:37:33;5.75;;;1.50;;
3307;SDS011;1666;48.898;9.182;2023-02-25T15:49:16;4.68;;;2.53;;
3307;SDS011;1666;48.898;9.182;2023-02-25T15:51:50;6.93;;;2.55;;
3307;SDS011;1666;48.898;9.182;2023-02-25T16:06:11;7.38;;;3.58;;
3307;SDS011;1666;48.898;9.182;2023-02-25T16:08:46;5.28;;;2.83;;
3307;SDS011;1666;48.898;9.182;2023-02-25T16:11:27;6.38;;;2.67;;
3307;SDS011;1666;48.898;9.182;2023-02-25T16:14:02;7.40;;;2.85;;
3307;SDS011;1666;48.898;9.182;2023-02-25T16:16:37;6.82;;;2.90;;
3307;SDS011;1666;48.898;9.182;2023-02-25T16:19:12;7.72;;;2.67;;
3307;SDS011;1666;48.898;9.182;2023-02-25T16:21:46;4.55;;;2.78;;
3307;SDS011;1666;48.898;9.182;2023-02-25T16:24:20;10.93;;;3.30;;
3307;SDS011;1666;48.898;9.182;2023-02-25T16:26:56;5.28;;;2.25;;
3307;SDS011;1666;48.898;9.182;2023-02-25T16:29:37;8.18;;;2.42;;
3307;SDS011;1666;48.898;9.182;2023-02-25T16:32:19;8.55;;;2.38;;
3307;SDS011;1666;48.898;9.182;2023-02-25T16:35:00;3.55;;;2.10;;
3307;SDS011;1666;48.898;9.182;2023-02-25T16:37:36;4.72;;;3.35;;
3307;SDS011;1666;48.898;9.182;2023-02-25T16:40:12;8.07;;;2.78;;
3307;SDS011;1666;48.898;9.182;2023-02-25T16:42:48;7.07;;;2.65;;
3307;SDS011;1666;48.898;9.182;2023-02-25T16:45:23;7.75;;;2.90;;
3307;SDS011;1666;48.898;9.182;2023-02-25T16:47:56;6.70;;;3.55;;
3307;SDS011;1666;48.898;9.182;2023-02-25T16:50:29;9.20;;;5.30;;
3307;SDS011;1666;48.898;9.182;2023-02-25T16:53:00;8.65;;;4.78;;
3307;SDS011;1666;48.898;9.182;2023-02-25T16:55:34;8.82;;;4.57;;
3307;SDS011;1666;48.898;9.182;2023-02-25T16:58:20;10.05;;;4.72;;
3307;SDS011;1666;48.898;9.182;2023-02-25T17:00:52;6.07;;;3.50;;
3307;SDS011;1666;48.898;9.182;2023-02-25T17:03:24;5.78;;;2.70;;
3307;SDS011;1666;48.898;9.182;2023-02-25T17:06:01;8.30;;;2.70;;
3307;SDS011;1666;48.898;9.182;2023-02-25T17:08:33;9.88;;;3.03;;
3307;SDS011;1666;48.898;9.182;2023-02-25T17:11:05;9.90;;;3.67;;
3307;SDS011;1666;48.898;9.182;2023-02-25T17:13:41;5.85;;;2.80;;
3307;SDS011;1666;48.898;9.182;2023-02-25T17:18:47;5.40;;;1.75;;